CheckWX is a tool to help pilots better visualize weather data.  It is not intended as a substitute for an official pre-flight weather briefing.

21:17:33 UTC

GGOV METAR
Osvaldo Vieira International Airport
Bissau, Guinea-Bissau
Current

1 hour ago

GGOV 182000Z 24005KT CAVOK 28/16 Q1009 NOSIG
Observed
Feb-18 @ 20:00 UTC
Wind
  • 240° at 5 KTS
Visibility
10,000+ meters
Flight Rules
VFR
Cloud Levels
  • Clear skies
Temperature
28°C / 82°F
Dewpoint
16°C / 61°F
Humidity
48%
Altimeter
29.79" Hg
Pressure
1008.92 hPa
Previous

2 hours ago

GGOV 181900Z 26005KT CAVOK 32/11 Q1009 NOSIG
Observed
Feb-18 @ 19:00 UTC
Wind
  • 260° at 5 KTS
Visibility
10,000+ meters
Flight Rules
VFR
Cloud Levels
  • Clear skies
Temperature
32°C / 90°F
Dewpoint
11°C / 52°F
Humidity
27%
Altimeter
29.79" Hg
Pressure
1008.92 hPa
Previous

3 hours ago

GGOV 181800Z 36004KT CAVOK 33/07 Q1008 NOSIG
Observed
Feb-18 @ 18:00 UTC
Wind
  • 360° at 4 KTS
Visibility
10,000+ meters
Flight Rules
VFR
Cloud Levels
  • Clear skies
Temperature
33°C / 91°F
Dewpoint
C / 45°F
Humidity
20%
Altimeter
29.76" Hg
Pressure
1007.92 hPa